createdAt,value
2022-09-21T00:02:57.242Z,96145.56
2022-09-21T00:06:01.961Z,96142.16
2022-09-21T00:09:04.470Z,96155.00
2022-09-21T00:12:07.528Z,96145.91
2022-09-21T00:15:10.263Z,96144.56
2022-09-21T00:18:11.861Z,96142.66
2022-09-21T00:21:14.979Z,96145.28
2022-09-21T00:24:16.554Z,96146.41
2022-09-21T00:27:19.549Z,96149.16
2022-09-21T00:30:21.169Z,96143.06
2022-09-21T00:33:22.769Z,96141.19
2022-09-21T00:36:24.897Z,96141.75
2022-09-21T00:39:26.522Z,96137.75
2022-09-21T00:42:30.257Z,96143.97
2022-09-21T00:45:31.993Z,96139.03
2022-09-21T00:48:33.853Z,96142.69
2022-09-21T00:51:35.535Z,96145.22
2022-09-21T00:54:41.007Z,96137.53
2022-09-21T00:57:45.268Z,96143.06
2022-09-21T01:00:46.963Z,96149.66
2022-09-21T01:03:49.113Z,96143.34
2022-09-21T01:06:52.292Z,96135.81
2022-09-21T01:09:55.159Z,96139.31
2022-09-21T01:13:04.744Z,96145.19
2022-09-21T01:16:10.972Z,96139.88
2022-09-21T01:19:23.808Z,96146.97
2022-09-21T01:22:32.635Z,96143.78
2022-09-21T01:25:41.825Z,96141.63
2022-09-21T01:29:01.035Z,96141.38
2022-09-21T01:32:06.953Z,96140.66
2022-09-21T01:35:10.841Z,96137.53
2022-09-21T01:38:14.492Z,96143.75
2022-09-21T01:41:18.402Z,96135.25
2022-09-21T01:44:21.826Z,96138.63
2022-09-21T01:47:25.165Z,96139.88
2022-09-21T01:50:29.155Z,96142.91
2022-09-21T01:53:33.379Z,96141.56
2022-09-21T01:56:36.505Z,96143.22
2022-09-21T01:59:41.250Z,96146.34
2022-09-21T02:02:46.939Z,96144.22
2022-09-21T02:05:48.606Z,96139.34
2022-09-21T02:08:50.240Z,96140.97
2022-09-21T02:11:51.801Z,96145.84
2022-09-21T02:14:53.953Z,96136.41
2022-09-21T02:18:03.449Z,96146.63
2022-09-21T02:21:08.263Z,96136.16
2022-09-21T02:24:13.705Z,96136.25
2022-09-21T02:27:20.965Z,96134.09
2022-09-21T02:30:23.721Z,96134.19
2022-09-21T02:33:30.804Z,96128.44
2022-09-21T02:36:37.242Z,96130.91
2022-09-21T02:39:42.324Z,96130.91
2022-09-21T02:42:44.431Z,96131.59
2022-09-21T02:45:49.852Z,96131.75
2022-09-21T02:48:54.122Z,96126.81
2022-09-21T02:51:58.312Z,96124.56
2022-09-21T02:55:01.356Z,96125.41
2022-09-21T02:58:04.912Z,96126.66
2022-09-21T03:01:08.154Z,96132.81
2022-09-21T03:04:11.198Z,96136.28
2022-09-21T03:07:13.035Z,96136.28
2022-09-21T03:10:14.722Z,96136.38
2022-09-21T03:13:16.633Z,96143.31
2022-09-21T03:16:18.474Z,96153.63
2022-09-21T03:19:21.476Z,96149.09
2022-09-21T03:22:23.186Z,96150.78
2022-09-21T03:25:24.847Z,96156.41
2022-09-21T03:28:26.512Z,96148.84
2022-09-21T03:31:28.178Z,96147.72
2022-09-21T03:34:31.261Z,96157.38
2022-09-21T03:37:32.864Z,96156.31
2022-09-21T03:40:34.818Z,96158.22
2022-09-21T03:43:36.418Z,96154.75
2022-09-21T03:46:38.037Z,96171.59
2022-09-21T03:49:41.029Z,96168.97
2022-09-21T03:52:42.619Z,96173.22
2022-09-21T03:55:44.225Z,96174.63
2022-09-21T03:58:45.844Z,96177.41
2022-09-21T04:01:47.543Z,96181.56
2022-09-21T04:04:50.496Z,96182.34
2022-09-21T04:07:54.091Z,96181.22
2022-09-21T04:10:55.961Z,96177.41
2022-09-21T04:13:57.540Z,96184.00
2022-09-21T04:16:59.322Z,96179.66
2022-09-21T04:20:02.677Z,96180.97
2022-09-21T04:23:04.265Z,96186.00
2022-09-21T04:26:05.875Z,96190.25
2022-09-21T04:29:07.557Z,96195.19
2022-09-21T04:32:10.093Z,96191.53
2022-09-21T04:35:13.058Z,96201.16
2022-09-21T04:38:14.657Z,96196.38
2022-09-21T04:41:16.939Z,96196.59
2022-09-21T04:44:18.540Z,96196.06
2022-09-21T04:47:20.150Z,96193.69
2022-09-21T04:50:23.114Z,96205.25
2022-09-21T04:53:24.697Z,96194.66
2022-09-21T04:56:26.295Z,96204.31
2022-09-21T04:59:27.891Z,96202.06
2022-09-21T05:02:29.516Z,96205.44
2022-09-21T05:05:32.499Z,96204.31
2022-09-21T05:08:34.220Z,96209.31
2022-09-21T05:11:35.839Z,96214.03
2022-09-21T05:14:37.426Z,96212.28
2022-09-21T05:17:39.636Z,96220.00
2022-09-21T05:20:42.752Z,96216.44
2022-09-21T05:23:44.399Z,96223.56
2022-09-21T05:26:46.011Z,96222.53
2022-09-21T05:29:47.991Z,96230.84
2022-09-21T05:32:55.050Z,96229.81
2022-09-21T05:36:04.992Z,96234.88
2022-09-21T05:39:06.884Z,96233.47
2022-09-21T05:42:10.291Z,96240.34
2022-09-21T05:45:15.652Z,96243.78
2022-09-21T05:48:19.088Z,96253.09
2022-09-21T05:51:27.200Z,96248.44
2022-09-21T05:54:32.521Z,96251.88
2022-09-21T05:57:41.128Z,96249.13
2022-09-21T06:00:44.887Z,96255.25
2022-09-21T06:03:46.888Z,96252.31
2022-09-21T06:06:49.926Z,96250.75
2022-09-21T06:09:51.861Z,96260.50
2022-09-21T06:12:53.491Z,96255.19
2022-09-21T06:15:55.142Z,96264.06
2022-09-21T06:18:56.749Z,96255.72
2022-09-21T06:21:59.693Z,96260.06
2022-09-21T06:25:01.614Z,96259.28
2022-09-21T06:28:03.831Z,96262.31
2022-09-21T06:31:05.483Z,96266.75
2022-09-21T06:34:07.264Z,96260.66
2022-09-21T06:37:10.305Z,96271.44
2022-09-21T06:40:11.937Z,96264.84
2022-09-21T06:43:13.602Z,96264.47
2022-09-21T06:46:15.301Z,96268.41
2022-09-21T06:49:17.018Z,96267.19
2022-09-21T06:52:19.988Z,96270.47
2022-09-21T06:55:21.564Z,96266.56
2022-09-21T06:58:23.186Z,96273.06
2022-09-21T07:01:24.915Z,96279.16
2022-09-21T07:04:26.630Z,96278.56
2022-09-21T07:07:29.921Z,96275.69
2022-09-21T07:10:31.571Z,96269.88
2022-09-21T07:13:33.239Z,96274.38
2022-09-21T07:16:34.921Z,96282.88
2022-09-21T07:19:36.577Z,96277.44
2022-09-21T07:22:39.605Z,96278.31
2022-09-21T07:25:41.615Z,96286.91
2022-09-21T07:28:43.254Z,96280.03
2022-09-21T07:31:45.104Z,96286.38
2022-09-21T07:34:46.785Z,96289.94
2022-09-21T07:37:49.920Z,96287.91
2022-09-21T07:40:51.504Z,96292.53
2022-09-21T07:43:53.405Z,96288.81
2022-09-21T07:46:55.077Z,96287.84
2022-09-21T07:49:56.721Z,96290.88
2022-09-21T07:53:00.248Z,96294.63
2022-09-21T07:56:02.412Z,96289.47
2022-09-21T07:59:04.380Z,96285.84
2022-09-21T08:02:06.369Z,96282.59
2022-09-21T08:05:08.355Z,96278.22
2022-09-21T08:08:11.333Z,96282.63
2022-09-21T08:11:12.922Z,96285.91
2022-09-21T08:14:14.534Z,96281.09
2022-09-21T08:17:16.131Z,96276.19
2022-09-21T08:20:17.759Z,96279.75
2022-09-21T08:23:20.808Z,96277.25
2022-09-21T08:26:22.455Z,96278.31
2022-09-21T08:29:24.247Z,96281.19
2022-09-21T08:32:49.265Z,96278.28
2022-09-21T08:35:52.287Z,96282.63
2022-09-21T08:38:55.285Z,96286.66
2022-09-21T08:42:04.762Z,96289.78
2022-09-21T08:45:11.082Z,96283.78
2022-09-21T08:48:18.696Z,96289.47
2022-09-21T08:51:22.964Z,96292.25
2022-09-21T08:54:28.717Z,96284.91
2022-09-21T08:57:30.906Z,96288.47
2022-09-21T09:00:35.740Z,96294.34
2022-09-21T09:03:46.851Z,96288.03
2022-09-21T09:06:52.737Z,96293.38
2022-09-21T09:10:18.146Z,96290.97
2022-09-21T09:13:28.120Z,96290.56
2022-09-21T09:16:32.060Z,96295.47
2022-09-21T09:19:39.690Z,96294.03
2022-09-21T09:22:44.921Z,96297.09
2022-09-21T09:25:50.330Z,96301.41
2022-09-21T09:28:55.284Z,96297.75
2022-09-21T09:31:58.117Z,96295.75
2022-09-21T09:35:03.220Z,96296.78
2022-09-21T09:38:09.769Z,96294.66
2022-09-21T09:41:21.465Z,96293.38
2022-09-21T09:44:28.284Z,96294.53
2022-09-21T09:47:36.537Z,96290.34
2022-09-21T09:50:39.797Z,96295.81
2022-09-21T09:53:41.398Z,96295.34
2022-09-21T09:56:44.651Z,96294.09
2022-09-21T09:59:54.004Z,96293.53
2022-09-21T10:02:56.791Z,96289.66
2022-09-21T10:05:58.435Z,96296.13
2022-09-21T10:09:00.117Z,96294.47
2022-09-21T10:12:15.682Z,96288.41
2022-09-21T10:15:17.660Z,96281.84
2022-09-21T10:18:21.862Z,96294.31
2022-09-21T10:21:24.664Z,96279.59
2022-09-21T10:24:28.251Z,96277.06
2022-09-21T10:27:34.084Z,96279.09
2022-09-21T10:30:36.625Z,96269.94
2022-09-21T10:33:47.949Z,96275.66
2022-09-21T10:36:50.419Z,96269.16
2022-09-21T10:39:52.068Z,96266.81
2022-09-21T10:42:55.999Z,96260.72
2022-09-21T10:45:57.968Z,96266.50
2022-09-21T10:49:00.025Z,96265.94
2022-09-21T10:52:02.003Z,96272.13
2022-09-21T10:55:04.291Z,96271.91
2022-09-21T10:58:10.172Z,96270.75
2022-09-21T11:01:13.338Z,96282.31
2022-09-21T11:04:18.133Z,96278.00
2022-09-21T11:07:22.544Z,96277.28
2022-09-21T11:10:27.407Z,96272.97
2022-09-21T11:13:34.105Z,96271.50
2022-09-21T11:16:38.764Z,96274.19
2022-09-21T11:19:43.602Z,96270.75
2022-09-21T11:22:49.077Z,96278.59
2022-09-21T11:25:56.919Z,96275.50
2022-09-21T11:29:03.317Z,96276.03
2022-09-21T11:32:21.873Z,96276.84
2022-09-21T11:35:39.512Z,96266.22
2022-09-21T11:38:47.329Z,96270.16
2022-09-21T11:41:55.892Z,96269.34
2022-09-21T11:45:00.407Z,96266.63
2022-09-21T11:48:11.000Z,96268.97
2022-09-21T11:51:19.774Z,96268.28
2022-09-21T11:54:42.477Z,96265.22
2022-09-21T11:57:49.590Z,96263.53
2022-09-21T12:01:00.771Z,96258.59
2022-09-21T12:04:13.890Z,96254.78
2022-09-21T12:07:22.269Z,96253.84
2022-09-21T12:10:42.341Z,96259.28
2022-09-21T12:13:48.431Z,96253.19
2022-09-21T12:16:56.692Z,96254.28
2022-09-21T12:20:03.394Z,96249.22
2022-09-21T12:23:16.348Z,96250.22
2022-09-21T12:26:19.971Z,96248.13
2022-09-21T12:29:25.591Z,96241.88
2022-09-21T12:32:36.939Z,96244.56
2022-09-21T12:35:41.611Z,96243.50
2022-09-21T12:38:49.142Z,96239.91
2022-09-21T12:41:54.208Z,96242.22
2022-09-21T12:44:58.559Z,96241.94
2022-09-21T12:48:06.132Z,96236.94
2022-09-21T12:51:12.684Z,96230.34
2022-09-21T12:54:20.923Z,96232.34
2022-09-21T12:57:49.208Z,96234.41
2022-09-21T13:00:57.723Z,96231.31
2022-09-21T13:04:09.529Z,96233.34
2022-09-21T13:07:31.996Z,96234.97
2022-09-21T13:10:45.205Z,96238.81
2022-09-21T13:13:47.718Z,96234.22
2022-09-21T13:16:54.536Z,96229.53
2022-09-21T13:19:59.024Z,96227.56
2022-09-21T13:23:01.385Z,96214.66
2022-09-21T13:26:04.729Z,96225.09
2022-09-21T13:29:25.928Z,96224.13
2022-09-21T13:32:47.625Z,96219.88
2022-09-21T13:36:00.854Z,96222.13
2022-09-21T13:39:16.330Z,96219.44
2022-09-21T13:42:32.942Z,96209.84
2022-09-21T13:45:49.244Z,96215.56
2022-09-21T13:48:53.663Z,96204.31
2022-09-21T13:51:59.064Z,96214.00
2022-09-21T13:55:01.939Z,96208.25
2022-09-21T13:58:05.030Z,96213.13
2022-09-21T14:01:29.232Z,96215.50
2022-09-21T14:04:34.792Z,96206.31
2022-09-21T14:07:38.003Z,96210.69
2022-09-21T14:10:40.276Z,96211.38
2022-09-21T14:13:42.923Z,96207.53
2022-09-21T14:17:02.277Z,96199.84
2022-09-21T14:20:05.576Z,96196.00
2022-09-21T14:23:26.077Z,96198.91
2022-09-21T14:26:32.594Z,96200.53
2022-09-21T14:29:39.258Z,96201.06
2022-09-21T14:32:43.465Z,96201.28
2022-09-21T14:35:45.824Z,96203.63
2022-09-21T14:38:53.741Z,96201.31
2022-09-21T14:42:03.037Z,96201.31
2022-09-21T14:45:05.037Z,96199.31
2022-09-21T14:48:08.802Z,96193.44
2022-09-21T14:51:14.423Z,96197.69
2022-09-21T14:54:23.732Z,96190.66
2022-09-21T14:57:35.551Z,96192.59
2022-09-21T15:00:38.850Z,96187.63
2022-09-21T15:03:51.151Z,96181.56
2022-09-21T15:06:57.680Z,96179.44
2022-09-21T15:10:11.064Z,96183.50
2022-09-21T15:13:27.494Z,96180.88
2022-09-21T15:16:38.684Z,96180.09
2022-09-21T15:19:40.359Z,96180.97
2022-09-21T15:22:43.045Z,96179.06
2022-09-21T15:25:53.444Z,96176.44
2022-09-21T15:29:10.857Z,96174.91
2022-09-21T15:32:23.517Z,96174.16
2022-09-21T15:35:26.105Z,96172.66
2022-09-21T15:38:28.367Z,96177.75
2022-09-21T15:41:44.801Z,96177.34
2022-09-21T15:44:47.393Z,96176.22
2022-09-21T15:47:49.160Z,96182.03
2022-09-21T15:50:53.703Z,96171.13
2022-09-21T15:53:57.009Z,96168.44
2022-09-21T15:57:05.969Z,96171.91
2022-09-21T16:00:19.924Z,96172.66
2022-09-21T16:03:22.897Z,96171.41
2022-09-21T16:06:25.600Z,96169.41
2022-09-21T16:09:28.269Z,96169.69
2022-09-21T16:12:41.415Z,96166.19
2022-09-21T16:15:59.477Z,96164.47
2022-09-21T16:19:01.176Z,96168.25
2022-09-21T16:22:03.921Z,96164.03
2022-09-21T16:25:20.366Z,96162.41
2022-09-21T16:28:34.474Z,96180.56
2022-09-21T16:31:36.306Z,96170.88
2022-09-21T16:34:38.032Z,96174.38
2022-09-21T16:37:39.671Z,96182.00
2022-09-21T16:40:41.381Z,96179.16
2022-09-21T16:43:44.503Z,96180.97
2022-09-21T16:46:46.989Z,96181.22
2022-09-21T16:49:48.690Z,96180.03
2022-09-21T16:52:50.519Z,96176.78
2022-09-21T16:55:52.111Z,96173.69
2022-09-21T16:58:55.112Z,96183.00
2022-09-21T17:01:57.678Z,96176.28
2022-09-21T17:04:59.341Z,96175.69
2022-09-21T17:08:01.167Z,96177.88
2022-09-21T17:11:03.012Z,96180.72
2022-09-21T17:14:06.059Z,96178.66
2022-09-21T17:17:12.349Z,96179.41
2022-09-21T17:20:18.400Z,96175.16
2022-09-21T17:23:20.069Z,96176.25
2022-09-21T17:26:21.898Z,96176.94
2022-09-21T17:29:26.043Z,96177.69
2022-09-21T17:32:27.673Z,96177.72
2022-09-21T17:35:31.637Z,96175.66
2022-09-21T17:38:33.309Z,96185.94
2022-09-21T17:41:37.256Z,96189.56
2022-09-21T17:44:45.520Z,96196.91
2022-09-21T17:47:47.343Z,96189.53
2022-09-21T17:50:49.617Z,96196.19
2022-09-21T17:53:51.800Z,96197.22
2022-09-21T17:56:56.390Z,96201.06
2022-09-21T18:00:02.990Z,96200.53
2022-09-21T18:03:10.790Z,96201.78
2022-09-21T18:06:12.881Z,96207.09
2022-09-21T18:09:14.861Z,96204.06
2022-09-21T18:12:40.174Z,96205.69
2022-09-21T18:15:50.016Z,96210.97
2022-09-21T18:18:55.310Z,96209.06
2022-09-21T18:21:59.046Z,96212.22
2022-09-21T18:25:01.100Z,96209.06
2022-09-21T18:28:05.230Z,96214.00
2022-09-21T18:31:21.731Z,96207.78
2022-09-21T18:34:35.447Z,96210.56
2022-09-21T18:37:44.454Z,96216.53
2022-09-21T18:40:54.899Z,96216.53
2022-09-21T18:44:01.095Z,96220.78
2022-09-21T18:47:06.532Z,96216.00
2022-09-21T18:50:17.467Z,96227.91
2022-09-21T18:53:23.589Z,96218.03
2022-09-21T18:56:26.385Z,96222.50
2022-09-21T18:59:31.678Z,96218.06
2022-09-21T19:02:33.979Z,96213.16
2022-09-21T19:05:38.717Z,96215.50
2022-09-21T19:08:44.671Z,96221.22
2022-09-21T19:11:49.045Z,96213.88
2022-09-21T19:14:57.613Z,96216.63
2022-09-21T19:18:07.397Z,96217.84
2022-09-21T19:21:17.206Z,96217.50
2022-09-21T19:24:23.557Z,96216.03
2022-09-21T19:27:28.213Z,96213.75
2022-09-21T19:30:30.137Z,96209.78
2022-09-21T19:33:49.372Z,96214.47
2022-09-21T19:36:52.917Z,96211.28
2022-09-21T19:39:54.719Z,96210.97
2022-09-21T19:43:14.212Z,96213.19
2022-09-21T19:46:21.155Z,96213.50
2022-09-21T19:49:24.336Z,96214.66
2022-09-21T19:52:29.913Z,96211.41
2022-09-21T19:55:31.977Z,96211.13
2022-09-21T19:58:33.894Z,96210.94
2022-09-21T20:01:39.003Z,96215.31
2022-09-21T20:04:44.277Z,96207.44
2022-09-21T20:07:48.896Z,96209.03
2022-09-21T20:11:01.590Z,96205.25
2022-09-21T20:14:09.318Z,96202.63
2022-09-21T20:17:12.093Z,96202.28
2022-09-21T20:20:15.927Z,96200.59
2022-09-21T20:23:19.270Z,96198.94
2022-09-21T20:26:23.464Z,96204.03
2022-09-21T20:29:25.290Z,96196.91
2022-09-21T20:32:27.002Z,96199.59
2022-09-21T20:35:30.142Z,96201.88
2022-09-21T20:38:33.196Z,96197.28
2022-09-21T20:41:37.270Z,96204.03
2022-09-21T20:44:38.907Z,96197.81
2022-09-21T20:47:40.603Z,96215.75
2022-09-21T20:50:42.731Z,96211.22
2022-09-21T20:53:45.716Z,96214.09
2022-09-21T20:56:47.439Z,96210.94
2022-09-21T20:59:49.165Z,96210.66
2022-09-21T21:02:50.774Z,96205.81
2022-09-21T21:05:52.382Z,96209.44
2022-09-21T21:08:55.385Z,96210.31
2022-09-21T21:11:57.038Z,96206.09
2022-09-21T21:14:58.676Z,96210.75
2022-09-21T21:18:00.299Z,96204.66
2022-09-21T21:21:01.964Z,96217.28
2022-09-21T21:24:05.439Z,96205.47
2022-09-21T21:27:07.283Z,96204.16
2022-09-21T21:30:09.922Z,96206.09
2022-09-21T21:33:11.539Z,96209.25
2022-09-21T21:36:13.206Z,96208.47
2022-09-21T21:39:16.207Z,96207.81
2022-09-21T21:42:18.643Z,96211.31
2022-09-21T21:45:20.319Z,96203.81
2022-09-21T21:48:22.003Z,96205.66
2022-09-21T21:51:23.642Z,96200.09
2022-09-21T21:54:26.883Z,96203.78
2022-09-21T21:57:28.605Z,96204.22
2022-09-21T22:00:30.218Z,96200.28
2022-09-21T22:03:31.842Z,96207.59
2022-09-21T22:06:34.567Z,96199.78
2022-09-21T22:09:37.595Z,96202.25
2022-09-21T22:12:39.303Z,96194.84
2022-09-21T22:15:40.945Z,96195.00
2022-09-21T22:18:44.846Z,96189.50
2022-09-21T22:21:50.384Z,96184.81
2022-09-21T22:24:56.325Z,96179.22
2022-09-21T22:27:57.978Z,96179.88
2022-09-21T22:30:59.934Z,96177.00
2022-09-21T22:34:01.571Z,96172.41
2022-09-21T22:37:03.253Z,96173.97
2022-09-21T22:40:07.289Z,96169.50
2022-09-21T22:43:09.036Z,96161.56
2022-09-21T22:46:10.961Z,96172.44
2022-09-21T22:49:12.644Z,96166.56
2022-09-21T22:52:14.259Z,96158.09
2022-09-21T22:55:17.396Z,96158.53
2022-09-21T22:58:19.083Z,96158.00
2022-09-21T23:01:23.714Z,96157.41
2022-09-21T23:04:25.467Z,96160.19
2022-09-21T23:07:27.083Z,96155.31
2022-09-21T23:10:30.080Z,96153.22
2022-09-21T23:13:31.744Z,96157.16
2022-09-21T23:16:33.534Z,96151.50
2022-09-21T23:19:35.215Z,96155.06
2022-09-21T23:22:37.147Z,96161.00
2022-09-21T23:25:40.165Z,96159.47
2022-09-21T23:28:42.317Z,96148.13
2022-09-21T23:31:46.049Z,96139.00
2022-09-21T23:34:48.074Z,96142.91
2022-09-21T23:37:49.766Z,96143.56
2022-09-21T23:40:52.904Z,96148.69
2022-09-21T23:43:54.897Z,96142.09
2022-09-21T23:46:56.643Z,96135.19
2022-09-21T23:49:58.277Z,96141.44
2022-09-21T23:52:59.901Z,96141.66
2022-09-21T23:56:03.659Z,96133.84
2022-09-21T23:59:05.520Z,96128.03
